Time;durP1;ratioP1;P1;durP2;ratioP2;P2;SDS_P1;SDS_P2;PMS_P1;PMS_P2;Temp;Humidity;BMP_temperature;BMP_pressure;BME280_temperature;BME280_humidity;BME280_pressure;Samples;Min_cycle;Max_cycle;Signal;HPM_P1;HPM_P2
2023/11/13 00:02:09;;;;;;;;;9.00;4.00;;;;;-144.24;100.00;60536.00;4957974;28;71066;-67
2023/11/13 00:04:34;;;;;;;;;14.00;7.33;;;;;-144.24;100.00;60536.00;4956713;28;45503;-71
2023/11/13 00:07:00;;;;;;;;;7.00;5.00;;;;;-144.24;100.00;60536.00;4956726;28;45397;-71
2023/11/13 00:09:25;;;;;;;;;9.33;6.00;;;;;-144.24;100.00;60536.00;4956564;28;58340;-71
2023/11/13 00:11:50;;;;;;;;;8.00;5.00;;;;;-144.24;100.00;60536.00;4955884;28;75919;-67
2023/11/13 00:14:16;;;;;;;;;10.67;5.00;;;;;-144.24;100.00;60536.00;4958259;28;64869;-68
2023/11/13 00:16:41;;;;;;;;;9.00;3.00;;;;;-144.24;100.00;60536.00;4956733;28;45452;-67
2023/11/13 00:19:06;;;;;;;;;10.67;4.33;;;;;-144.24;100.00;60536.00;4957205;28;45523;-70
2023/11/13 00:21:32;;;;;;;;;15.67;3.67;;;;;-144.24;100.00;60536.00;4953606;28;46569;-68
2023/11/13 00:23:58;;;;;;;;;8.00;3.67;;;;;-144.24;100.00;60536.00;4953338;28;74354;-70
2023/11/13 00:26:23;;;;;;;;;9.00;3.67;;;;;-144.24;100.00;60536.00;4958217;28;45131;-68
2023/11/13 00:28:49;;;;;;;;;10.33;5.00;;;;;-144.24;100.00;60536.00;4957398;28;45610;-68
2023/11/13 00:31:14;;;;;;;;;12.33;4.00;;;;;-144.24;100.00;60536.00;4952601;28;74456;-68
2023/11/13 00:33:39;;;;;;;;;8.67;5.00;;;;;-144.24;100.00;60536.00;4955537;28;73963;-70
2023/11/13 00:36:06;;;;;;;;;14.00;3.67;;;;;-144.24;100.00;60536.00;4955945;28;45285;-68
2023/11/13 00:38:32;;;;;;;;;6.67;3.00;;;;;-144.24;100.00;60536.00;4957109;28;45478;-69
2023/11/13 00:40:58;;;;;;;;;14.33;4.00;;;;;-144.24;100.00;60536.00;4956265;28;46627;-70
2023/11/13 00:43:23;;;;;;;;;9.00;4.00;;;;;-144.24;100.00;60536.00;4956949;28;45480;-70
2023/11/13 00:45:49;;;;;;;;;8.00;4.00;;;;;-144.24;100.00;60536.00;4956875;28;45375;-70
2023/11/13 00:48:14;;;;;;;;;14.33;5.00;;;;;-144.24;100.00;60536.00;4960684;28;45312;-69
2023/11/13 00:50:39;;;;;;;;;6.33;3.00;;;;;-144.24;100.00;60536.00;4962421;28;47453;-71
2023/11/13 00:53:05;;;;;;;;;11.33;6.33;;;;;-144.24;100.00;60536.00;4957096;28;45481;-71
2023/11/13 00:55:30;;;;;;;;;7.67;4.00;;;;;-144.24;100.00;60536.00;4961229;28;68838;-68
2023/11/13 00:57:55;;;;;;;;;5.00;3.67;;;;;-144.24;100.00;60536.00;4955889;28;67382;-68
2023/11/13 01:00:21;;;;;;;;;9.00;6.00;;;;;-144.24;100.00;60536.00;4959361;28;76684;-68
2023/11/13 01:02:46;;;;;;;;;10.33;3.33;;;;;-144.24;100.00;60536.00;4959726;28;72027;-68
2023/11/13 01:05:11;;;;;;;;;13.67;4.33;;;;;-144.24;100.00;60536.00;4948772;28;68577;-70
2023/11/13 01:07:37;;;;;;;;;14.00;3.00;;;;;-144.24;100.00;60536.00;4958683;28;59161;-68
2023/11/13 01:10:03;;;;;;;;;9.33;2.67;;;;;-144.24;100.00;60536.00;4959223;28;46545;-71
2023/11/13 01:12:28;;;;;;;;;9.00;3.00;;;;;-144.24;100.00;60536.00;4959125;28;45475;-70
2023/11/13 01:14:54;;;;;;;;;9.00;4.00;;;;;-144.24;100.00;60536.00;4964632;28;45495;-68
2023/11/13 01:17:19;;;;;;;;;7.33;3.00;;;;;-144.24;100.00;60536.00;4963147;28;45546;-68
2023/11/13 01:19:44;;;;;;;;;12.33;4.00;;;;;-144.24;100.00;60536.00;4959102;28;46332;-68
2023/11/13 01:22:10;;;;;;;;;6.67;3.67;;;;;-144.24;100.00;60536.00;4963897;28;61401;-69
2023/11/13 01:24:35;;;;;;;;;15.33;5.00;;;;;-144.24;100.00;60536.00;4966504;28;45423;-68
2023/11/13 01:27:01;;;;;;;;;12.33;4.67;;;;;-144.24;100.00;60536.00;4964456;28;45558;-68
2023/11/13 01:29:26;;;;;;;;;6.00;2.67;;;;;-144.24;100.00;60536.00;4962197;28;75750;-69
2023/11/13 01:31:51;;;;;;;;;8.67;4.67;;;;;-144.24;100.00;60536.00;4959869;28;70665;-67
2023/11/13 01:34:17;;;;;;;;;6.00;4.00;;;;;-144.24;100.00;60536.00;4964931;28;50000;-68
2023/11/13 01:36:46;;;;;;;;;12.67;3.00;;;;;-144.24;100.00;60536.00;4951119;28;63716;-69
2023/11/13 01:39:11;;;;;;;;;7.67;6.33;;;;;-144.24;100.00;60536.00;4961533;28;48968;-69
2023/11/13 01:41:38;;;;;;;;;9.67;4.33;;;;;-144.24;100.00;60536.00;4957904;28;45280;-68
2023/11/13 01:44:05;;;;;;;;;13.67;4.00;;;;;-144.24;100.00;60536.00;4960162;28;45338;-68
2023/11/13 01:46:30;;;;;;;;;6.00;3.00;;;;;-144.24;100.00;60536.00;4956051;28;45602;-69
2023/11/13 01:48:57;;;;;;;;;3.67;3.00;;;;;-144.24;100.00;60536.00;4961314;28;45617;-69
2023/11/13 01:51:24;;;;;;;;;4.00;2.67;;;;;-144.24;100.00;60536.00;4963104;28;46328;-69
2023/11/13 01:53:50;;;;;;;;;11.33;3.00;;;;;-144.24;100.00;60536.00;4957503;28;45352;-68
2023/11/13 01:56:16;;;;;;;;;7.67;2.67;;;;;-144.24;100.00;60536.00;4959360;28;66512;-68
2023/11/13 01:58:42;;;;;;;;;8.33;2.67;;;;;-144.24;100.00;60536.00;4955416;28;72035;-69
2023/11/13 02:01:07;;;;;;;;;4.67;3.33;;;;;-144.24;100.00;60536.00;4958088;28;45428;-70
2023/11/13 02:03:34;;;;;;;;;4.67;2.33;;;;;-144.24;100.00;60536.00;4959826;28;69122;-68
2023/11/13 02:06:00;;;;;;;;;7.67;2.00;;;;;-144.24;100.00;60536.00;4960993;28;45434;-70
2023/11/13 02:08:26;;;;;;;;;6.67;4.00;;;;;-144.24;100.00;60536.00;4958644;28;45868;-68
2023/11/13 02:10:51;;;;;;;;;7.33;3.67;;;;;-144.24;100.00;60536.00;4952651;28;72514;-71
2023/11/13 02:13:17;;;;;;;;;9.00;2.00;;;;;-144.24;100.00;60536.00;4961986;28;45288;-68
2023/11/13 02:15:42;;;;;;;;;6.67;3.33;;;;;-144.24;100.00;60536.00;4965171;28;50024;-70
2023/11/13 02:18:08;;;;;;;;;8.33;1.00;;;;;-144.24;100.00;60536.00;4962301;28;46508;-71
2023/11/13 02:20:34;;;;;;;;;8.00;4.67;;;;;-144.24;100.00;60536.00;4963432;28;48431;-68
2023/11/13 02:23:01;;;;;;;;;5.00;4.00;;;;;-144.24;100.00;60536.00;4960223;28;45352;-68
2023/11/13 02:25:26;;;;;;;;;8.33;1.00;;;;;-144.24;100.00;60536.00;4966706;28;45393;-67
2023/11/13 02:27:57;;;;;;;;;2.67;1.33;;;;;-144.24;100.00;60536.00;4957741;28;45472;-70
2023/11/13 02:30:23;;;;;;;;;5.67;2.00;;;;;-144.24;100.00;60536.00;4961552;28;45307;-68
2023/11/13 02:32:49;;;;;;;;;4.67;1.33;;;;;-144.24;100.00;60536.00;4965425;28;69305;-67
2023/11/13 02:35:17;;;;;;;;;4.67;1.00;;;;;-144.24;100.00;60536.00;4967349;28;47155;-67
2023/11/13 02:37:43;;;;;;;;;2.67;1.00;;;;;-144.24;100.00;60536.00;4957215;28;46646;-68
2023/11/13 02:40:11;;;;;;;;;7.33;0.00;;;;;-144.24;100.00;60536.00;4959409;28;45284;-68
2023/11/13 02:42:40;;;;;;;;;1.00;1.00;;;;;-144.24;100.00;60536.00;4958958;28;45448;-71
2023/11/13 02:45:07;;;;;;;;;5.00;1.00;;;;;-144.24;100.00;60536.00;4960175;28;45288;-70
2023/11/13 02:47:33;;;;;;;;;4.00;2.00;;;;;-144.24;100.00;60536.00;4955759;28;45598;-68
2023/11/13 02:49:58;;;;;;;;;2.00;2.00;;;;;-144.24;100.00;60536.00;4975562;28;47447;-68
2023/11/13 02:52:24;;;;;;;;;3.00;1.00;;;;;-144.24;100.00;60536.00;4972248;28;46985;-70
2023/11/13 02:54:52;;;;;;;;;5.67;2.00;;;;;-144.24;100.00;60536.00;4971068;28;67709;-68
2023/11/13 02:57:17;;;;;;;;;2.00;1.00;;;;;-144.24;100.00;60536.00;4972633;28;46605;-68
2023/11/13 02:59:43;;;;;;;;;9.00;2.00;;;;;-144.24;100.00;60536.00;4972246;28;45674;-70
2023/11/13 03:02:08;;;;;;;;;4.67;3.00;;;;;-144.24;100.00;60536.00;4974061;28;68802;-70
2023/11/13 03:04:33;;;;;;;;;8.00;2.00;;;;;-144.24;100.00;60536.00;4968848;28;67370;-68
2023/11/13 03:06:59;;;;;;;;;3.67;2.33;;;;;-144.24;100.00;60536.00;4973458;28;76288;-68
2023/11/13 03:09:24;;;;;;;;;5.67;2.00;;;;;-144.24;100.00;60536.00;4973124;28;47896;-69
2023/11/13 03:11:49;;;;;;;;;7.00;2.33;;;;;-144.24;100.00;60536.00;4972361;28;65812;-68
2023/11/13 03:14:14;;;;;;;;;2.00;2.00;;;;;-144.24;100.00;60536.00;4973672;28;50935;-69
2023/11/13 03:16:40;;;;;;;;;2.33;2.33;;;;;-144.24;100.00;60536.00;4973032;28;70359;-68
2023/11/13 03:19:05;;;;;;;;;6.67;3.67;;;;;-144.24;100.00;60536.00;4974316;28;60843;-68
2023/11/13 03:21:31;;;;;;;;;3.33;2.00;;;;;-144.24;100.00;60536.00;4976272;28;45558;-68
2023/11/13 03:23:57;;;;;;;;;7.33;3.67;;;;;-144.24;100.00;60536.00;4978407;28;45343;-67
2023/11/13 03:26:22;;;;;;;;;7.67;4.00;;;;;-144.24;100.00;60536.00;4977753;28;46170;-68
2023/11/13 03:28:47;;;;;;;;;6.33;3.00;;;;;-144.24;100.00;60536.00;4975930;28;63975;-71
2023/11/13 03:31:13;;;;;;;;;3.67;3.67;;;;;-144.24;100.00;60536.00;4975893;28;68917;-71
2023/11/13 03:33:39;;;;;;;;;6.33;3.00;;;;;-144.24;100.00;60536.00;4978529;28;45129;-69
2023/11/13 03:36:05;;;;;;;;;8.67;4.00;;;;;-144.24;100.00;60536.00;4977343;28;45336;-68
2023/11/13 03:38:30;;;;;;;;;4.33;3.00;;;;;-144.24;100.00;60536.00;4977556;28;46274;-70
2023/11/13 03:40:56;;;;;;;;;7.00;3.67;;;;;-144.24;100.00;60536.00;4973732;28;70157;-68
2023/11/13 03:43:21;;;;;;;;;10.33;4.00;;;;;-144.24;100.00;60536.00;4977705;28;45528;-71
2023/11/13 03:45:47;;;;;;;;;7.33;3.00;;;;;-144.24;100.00;60536.00;4977684;28;46071;-68
2023/11/13 03:48:12;;;;;;;;;5.00;4.00;;;;;-144.24;100.00;60536.00;4973714;28;72887;-69
2023/11/13 03:50:38;;;;;;;;;6.00;3.00;;;;;-144.24;100.00;60536.00;4957334;28;60601;-70
2023/11/13 03:53:03;;;;;;;;;10.33;5.00;;;;;-144.24;100.00;60536.00;4959937;28;45420;-71
2023/11/13 03:55:29;;;;;;;;;5.00;3.00;;;;;-144.24;100.00;60536.00;4957720;28;46408;-68
2023/11/13 03:57:54;;;;;;;;;10.00;4.67;;;;;-144.24;100.00;60536.00;4956230;28;47076;-70
2023/11/13 04:00:19;;;;;;;;;9.00;5.00;;;;;-144.24;100.00;60536.00;4958050;28;45503;-68
2023/11/13 04:02:48;;;;;;;;;7.00;4.00;;;;;-144.24;100.00;60536.00;4957462;28;60027;-68
2023/11/13 04:05:14;;;;;;;;;6.33;3.33;;;;;-144.24;100.00;60536.00;4957081;28;46626;-68
2023/11/13 04:07:39;;;;;;;;;8.33;4.00;;;;;-144.24;100.00;60536.00;4957418;28;45478;-68
2023/11/13 04:10:05;;;;;;;;;7.00;4.00;;;;;-144.24;100.00;60536.00;4955504;28;68947;-68
2023/11/13 04:12:31;;;;;;;;;10.00;4.33;;;;;-144.24;100.00;60536.00;4957596;28;45474;-68
2023/11/13 04:14:57;;;;;;;;;7.00;4.00;;;;;-144.24;100.00;60536.00;4955175;28;47643;-71
2023/11/13 04:17:22;;;;;;;;;6.67;3.67;;;;;-144.24;100.00;60536.00;4956984;28;47037;-68
2023/11/13 04:19:48;;;;;;;;;10.00;4.00;;;;;-144.24;100.00;60536.00;4958177;28;45536;-68
2023/11/13 04:22:14;;;;;;;;;7.00;4.00;;;;;-144.24;100.00;60536.00;4958238;28;45622;-69
2023/11/13 04:24:39;;;;;;;;;13.00;5.00;;;;;-144.24;100.00;60536.00;4956381;28;45644;-69
2023/11/13 04:27:05;;;;;;;;;8.00;3.00;;;;;-144.24;100.00;60536.00;4956622;28;45608;-68
2023/11/13 04:29:31;;;;;;;;;5.67;5.00;;;;;-144.24;100.00;60536.00;4957124;28;45633;-68
2023/11/13 04:31:56;;;;;;;;;13.33;5.33;;;;;-144.24;100.00;60536.00;4956217;28;45497;-68
2023/11/13 04:34:21;;;;;;;;;7.33;4.33;;;;;-144.24;100.00;60536.00;4956677;28;49395;-68
2023/11/13 04:36:47;;;;;;;;;4.33;4.33;;;;;-144.24;100.00;60536.00;4954307;28;73916;-68
2023/11/13 04:39:15;;;;;;;;;6.33;4.00;;;;;-144.24;100.00;60536.00;4955687;28;61438;-69
2023/11/13 04:41:40;;;;;;;;;6.00;3.00;;;;;-144.24;100.00;60536.00;4955024;28;45269;-71
2023/11/13 04:44:06;;;;;;;;;5.67;2.00;;;;;-144.24;100.00;60536.00;4954912;28;59163;-70
2023/11/13 04:46:31;;;;;;;;;7.00;3.67;;;;;-144.24;100.00;60536.00;4939137;28;51912;-68
2023/11/13 04:48:56;;;;;;;;;6.33;2.67;;;;;-144.24;100.00;60536.00;4957258;28;45444;-68
2023/11/13 04:51:22;;;;;;;;;6.67;3.67;;;;;-144.24;100.00;60536.00;4956331;28;45618;-72
2023/11/13 04:53:47;;;;;;;;;7.33;3.00;;;;;-144.24;100.00;60536.00;4956615;28;46388;-68
2023/11/13 04:56:13;;;;;;;;;2.00;2.00;;;;;-144.24;100.00;60536.00;4956319;28;45562;-68
2023/11/13 04:58:39;;;;;;;;;5.00;4.00;;;;;-144.24;100.00;60536.00;4953056;28;69050;-68
2023/11/13 05:01:04;;;;;;;;;4.67;3.00;;;;;-144.24;100.00;60536.00;4955959;28;45357;-68
2023/11/13 05:03:33;;;;;;;;;5.67;3.33;;;;;-144.24;100.00;60536.00;4954988;28;75399;-71
2023/11/13 05:05:59;;;;;;;;;3.67;3.67;;;;;-144.24;100.00;60536.00;4956474;28;45272;-69
2023/11/13 05:08:25;;;;;;;;;5.00;2.67;;;;;-144.24;100.00;60536.00;4953806;28;69062;-69
2023/11/13 05:10:50;;;;;;;;;5.00;3.00;;;;;-144.24;100.00;60536.00;4958336;28;45569;-70
2023/11/13 05:13:16;;;;;;;;;6.00;2.00;;;;;-144.24;100.00;60536.00;4955200;28;46392;-68
2023/11/13 05:15:41;;;;;;;;;4.00;3.00;;;;;-144.24;100.00;60536.00;4953146;28;45606;-69
2023/11/13 05:18:07;;;;;;;;;5.00;3.00;;;;;-144.24;100.00;60536.00;4955462;28;45491;-68
2023/11/13 05:20:39;;;;;;;;;4.67;4.00;;;;;-144.24;100.00;60536.00;4956758;28;45206;-67
2023/11/13 05:23:06;;;;;;;;;3.33;2.33;;;;;-144.24;100.00;60536.00;4955369;28;46477;-68
2023/11/13 05:25:31;;;;;;;;;3.00;2.67;;;;;-144.24;100.00;60536.00;4954765;28;45490;-70
2023/11/13 05:27:56;;;;;;;;;8.67;3.33;;;;;-144.24;100.00;60536.00;4955901;28;68857;-69
2023/11/13 05:30:24;;;;;;;;;5.67;4.67;;;;;-144.24;100.00;60536.00;4957103;28;45474;-68
2023/11/13 05:32:49;;;;;;;;;6.67;3.00;;;;;-144.24;100.00;60536.00;4955715;28;46624;-72
2023/11/13 05:35:15;;;;;;;;;3.67;3.00;;;;;-144.24;100.00;60536.00;4955962;28;65505;-71
2023/11/13 05:37:41;;;;;;;;;5.00;4.00;;;;;-144.24;100.00;60536.00;4955830;28;45452;-68
2023/11/13 05:40:07;;;;;;;;;4.33;4.33;;;;;-144.24;100.00;60536.00;4956222;28;45466;-68
2023/11/13 05:42:34;;;;;;;;;3.00;3.00;;;;;-144.24;100.00;60536.00;4952951;28;47265;-68
2023/11/13 05:45:00;;;;;;;;;14.00;4.00;;;;;-144.24;100.00;60536.00;4952749;28;45411;-70
2023/11/13 05:47:25;;;;;;;;;5.33;3.00;;;;;-144.24;100.00;60536.00;4955632;28;69628;-71
2023/11/13 05:49:50;;;;;;;;;4.33;4.00;;;;;-144.24;100.00;60536.00;4953975;28;69010;-68
2023/11/13 05:52:17;;;;;;;;;8.67;3.33;;;;;-144.24;100.00;60536.00;4954790;28;47303;-68
2023/11/13 05:54:43;;;;;;;;;8.00;4.00;;;;;-144.24;100.00;60536.00;4956949;28;45619;-69
2023/11/13 05:57:08;;;;;;;;;12.00;3.00;;;;;-144.24;100.00;60536.00;4954031;28;69012;-68
2023/11/13 05:59:33;;;;;;;;;3.33;2.33;;;;;-144.24;100.00;60536.00;4957572;28;67111;-68
2023/11/13 06:02:00;;;;;;;;;6.00;3.00;;;;;-144.24;100.00;60536.00;4957740;28;46494;-72
2023/11/13 06:04:25;;;;;;;;;6.00;3.00;;;;;-144.24;100.00;60536.00;4957938;28;45380;-68
2023/11/13 06:06:51;;;;;;;;;6.67;2.00;;;;;-144.24;100.00;60536.00;4956686;28;45436;-68
2023/11/13 06:09:16;;;;;;;;;6.00;4.00;;;;;-144.24;100.00;60536.00;4951892;28;45443;-69
2023/11/13 06:11:42;;;;;;;;;7.67;2.00;;;;;-144.24;100.00;60536.00;4960020;28;49289;-68
2023/11/13 06:14:08;;;;;;;;;6.67;3.00;;;;;-144.24;100.00;60536.00;4955373;28;45632;-68
2023/11/13 06:16:33;;;;;;;;;6.67;3.00;;;;;-144.24;100.00;60536.00;4948208;28;46555;-68
2023/11/13 06:18:59;;;;;;;;;6.33;3.67;;;;;-144.24;100.00;60536.00;4955418;28;45610;-69
2023/11/13 06:21:24;;;;;;;;;5.33;4.00;;;;;-144.24;100.00;60536.00;4957741;28;45741;-68
2023/11/13 06:23:50;;;;;;;;;7.00;3.00;;;;;-144.24;100.00;60536.00;4953960;28;72772;-68
2023/11/13 06:26:15;;;;;;;;;8.00;3.67;;;;;-144.24;100.00;60536.00;4954488;28;61478;-69
2023/11/13 06:28:41;;;;;;;;;8.67;3.00;;;;;-144.24;100.00;60536.00;4955159;28;45253;-69
2023/11/13 06:31:10;;;;;;;;;4.00;2.00;;;;;-144.24;100.00;60536.00;4955104;28;45709;-70
2023/11/13 06:33:36;;;;;;;;;7.67;4.33;;;;;-144.24;100.00;60536.00;4955030;28;45535;-68
2023/11/13 06:36:08;;;;;;;;;7.33;4.00;;;;;-144.24;100.00;60536.00;4954310;28;45542;-69
2023/11/13 06:38:34;;;;;;;;;4.00;2.00;;;;;-144.24;100.00;60536.00;4955381;28;45577;-69
2023/11/13 06:41:00;;;;;;;;;4.00;3.67;;;;;-144.24;100.00;60536.00;4953281;28;46392;-72
2023/11/13 06:43:26;;;;;;;;;8.67;4.00;;;;;-144.24;100.00;60536.00;4956916;28;45617;-69
2023/11/13 06:45:51;;;;;;;;;6.00;4.00;;;;;-144.24;100.00;60536.00;4950624;28;45530;-69
2023/11/13 06:48:16;;;;;;;;;6.33;4.00;;;;;-144.24;100.00;60536.00;4959287;28;46359;-72
2023/11/13 06:50:43;;;;;;;;;6.67;4.00;;;;;-144.24;100.00;60536.00;4963118;28;46232;-69
2023/11/13 06:53:08;;;;;;;;;5.67;5.00;;;;;-144.24;100.00;60536.00;4964844;28;45554;-68
2023/11/13 06:55:34;;;;;;;;;7.00;4.33;;;;;-144.24;100.00;60536.00;4958539;28;46039;-72
2023/11/13 06:57:59;;;;;;;;;2.00;1.33;;;;;-144.24;100.00;60536.00;4965923;28;45312;-69
2023/11/13 07:00:25;;;;;;;;;6.00;3.00;;;;;-144.24;100.00;60536.00;4970788;28;75787;-68
2023/11/13 07:02:51;;;;;;;;;6.33;4.00;;;;;-144.24;100.00;60536.00;4962817;28;46348;-70
2023/11/13 07:05:17;;;;;;;;;5.67;3.00;;;;;-144.24;100.00;60536.00;4964860;28;46460;-71
2023/11/13 07:07:42;;;;;;;;;3.33;3.33;;;;;-144.24;100.00;60536.00;4967495;28;46320;-71
2023/11/13 07:10:13;;;;;;;;;4.67;2.00;;;;;-144.24;100.00;60536.00;4966832;28;46268;-69
2023/11/13 07:12:41;;;;;;;;;3.67;3.00;;;;;-144.24;100.00;60536.00;4962886;28;47184;-69
2023/11/13 07:15:07;;;;;;;;;7.00;3.00;;;;;-144.24;100.00;60536.00;4966576;28;45503;-69
2023/11/13 07:17:32;;;;;;;;;4.00;3.00;;;;;-144.24;100.00;60536.00;4969348;28;45615;-69
2023/11/13 07:19:59;;;;;;;;;3.67;3.00;;;;;-144.24;100.00;60536.00;4972637;28;46703;-70
2023/11/13 07:22:25;;;;;;;;;3.67;3.67;;;;;-144.24;100.00;60536.00;4967288;28;45565;-72
2023/11/13 07:24:52;;;;;;;;;6.67;3.00;;;;;-144.24;100.00;60536.00;4969234;28;47308;-72
2023/11/13 07:27:17;;;;;;;;;5.67;3.00;;;;;-144.24;100.00;60536.00;4968910;28;45617;-72
2023/11/13 07:29:42;;;;;;;;;6.33;2.00;;;;;-144.24;100.00;60536.00;4969625;28;75397;-71
2023/11/13 07:32:08;;;;;;;;;1.00;1.00;;;;;-144.24;100.00;60536.00;4969948;28;58338;-71
2023/11/13 07:34:33;;;;;;;;;7.33;4.33;;;;;-144.24;100.00;60536.00;4970436;28;65037;-71
2023/11/13 07:36:58;;;;;;;;;5.00;2.00;;;;;-144.24;100.00;60536.00;4971231;28;66535;-71
2023/11/13 07:39:27;;;;;;;;;6.33;3.00;;;;;-144.24;100.00;60536.00;4971380;28;46275;-71
2023/11/13 07:41:55;;;;;;;;;4.00;2.67;;;;;-144.24;100.00;60536.00;4968752;28;45460;-71
2023/11/13 07:44:20;;;;;;;;;3.67;3.00;;;;;-144.24;100.00;60536.00;4959879;28;45616;-71
2023/11/13 07:46:46;;;;;;;;;5.00;3.00;;;;;-144.24;100.00;60536.00;4967963;28;45450;-71
2023/11/13 07:49:12;;;;;;;;;2.00;0.67;;;;;-144.24;100.00;60536.00;5097708;22;47119;-72
2023/11/13 07:51:37;;;;;;;;;2.33;1.00;;;;;-144.24;100.00;60536.00;4990204;28;45433;-71
2023/11/13 07:54:04;;;;;;;;;4.00;3.00;;;;;-144.24;100.00;60536.00;4987957;28;69213;-72
2023/11/13 07:56:31;;;;;;;;;3.33;2.00;;;;;-144.24;100.00;60536.00;4989032;28;45451;-71
2023/11/13 07:58:57;;;;;;;;;4.33;2.00;;;;;-144.24;100.00;60536.00;4983963;28;46514;-72
2023/11/13 08:01:24;;;;;;;;;2.00;1.00;;;;;-144.24;100.00;60536.00;4987917;28;45530;-72
2023/11/13 08:03:49;;;;;;;;;3.00;0.67;;;;;-144.24;100.00;60536.00;4988513;28;45421;-72
2023/11/13 08:06:15;;;;;;;;;4.67;2.00;;;;;-144.24;100.00;60536.00;4985746;28;61197;-73
2023/11/13 08:08:40;;;;;;;;;2.67;1.00;;;;;-144.24;100.00;60536.00;4991099;28;45725;-69
2023/11/13 08:11:07;;;;;;;;;1.00;1.00;;;;;-144.24;100.00;60536.00;4996044;28;45414;-69
2023/11/13 08:13:34;;;;;;;;;2.33;1.67;;;;;-144.24;100.00;60536.00;4992312;28;46117;-69
2023/11/13 08:15:59;;;;;;;;;4.00;1.00;;;;;-144.24;100.00;60536.00;4977592;28;45955;-70
2023/11/13 08:18:25;;;;;;;;;3.00;2.00;;;;;-144.24;100.00;60536.00;4991496;28;76682;-70
2023/11/13 08:20:50;;;;;;;;;3.33;2.00;;;;;-144.24;100.00;60536.00;4988416;28;72920;-71
2023/11/13 08:23:16;;;;;;;;;5.00;2.00;;;;;-144.24;100.00;60536.00;4994863;28;45662;-70
2023/11/13 08:25:46;;;;;;;;;5.67;2.00;;;;;-144.24;100.00;60536.00;4994263;28;46533;-69
2023/11/13 08:28:12;;;;;;;;;4.00;1.00;;;;;-144.24;100.00;60536.00;4995233;28;47658;-72
2023/11/13 08:30:37;;;;;;;;;2.00;2.00;;;;;-144.24;100.00;60536.00;4986034;28;45659;-70
2023/11/13 08:33:03;;;;;;;;;2.00;2.00;;;;;-144.24;100.00;60536.00;4992729;28;47235;-71
2023/11/13 08:35:31;;;;;;;;;5.33;2.00;;;;;-144.24;100.00;60536.00;4989869;28;45611;-68
2023/11/13 08:37:56;;;;;;;;;1.00;1.00;;;;;-144.24;100.00;60536.00;4992438;28;45647;-69
2023/11/13 08:40:25;;;;;;;;;1.00;1.00;;;;;-144.24;100.00;60536.00;4993363;28;45550;-70
2023/11/13 08:42:52;;;;;;;;;5.00;1.00;;;;;-144.24;100.00;60536.00;4992154;28;45461;-69
2023/11/13 08:45:17;;;;;;;;;3.00;1.00;;;;;-144.24;100.00;60536.00;4994051;28;45489;-69
2023/11/13 08:47:43;;;;;;;;;2.00;2.00;;;;;-144.24;100.00;60536.00;4988965;28;59164;-71
2023/11/13 08:50:11;;;;;;;;;0.00;0.00;;;;;-144.24;100.00;60536.00;4983868;28;46619;-70
2023/11/13 08:52:43;;;;;;;;;2.00;0.00;;;;;-144.24;100.00;60536.00;4989666;28;45882;-70
2023/11/13 08:55:12;;;;;;;;;1.00;1.00;;;;;-144.24;100.00;60536.00;4990715;28;45493;-71
2023/11/13 08:57:38;;;;;;;;;2.00;2.00;;;;;-144.24;100.00;60536.00;4989913;28;46880;-70
2023/11/13 09:00:05;;;;;;;;;1.00;1.00;;;;;-144.24;100.00;60536.00;4987394;28;45575;-69
2023/11/13 09:02:30;;;;;;;;;4.00;1.00;;;;;-144.24;100.00;60536.00;4985523;28;45556;-69
2023/11/13 09:04:55;;;;;;;;;0.00;0.00;;;;;-144.24;100.00;60536.00;4990843;28;68460;-71
2023/11/13 09:07:21;;;;;;;;;2.33;0.67;;;;;-144.24;100.00;60536.00;4992236;28;54954;-69
2023/11/13 09:09:46;;;;;;;;;3.67;1.00;;;;;-144.24;100.00;60536.00;4991456;28;47010;-69
2023/11/13 09:12:12;;;;;;;;;4.00;1.00;;;;;-144.24;100.00;60536.00;4993470;28;45374;-69
2023/11/13 09:14:42;;;;;;;;;4.33;1.00;;;;;-144.24;100.00;60536.00;4991840;28;45516;-70
2023/11/13 09:17:12;;;;;;;;;1.00;1.00;;;;;-144.24;100.00;60536.00;4994541;28;50709;-72
2023/11/13 09:19:43;;;;;;;;;2.00;1.00;;;;;-144.24;100.00;60536.00;4994443;28;45430;-69
2023/11/13 09:22:09;;;;;;;;;1.67;1.00;;;;;-144.24;100.00;60536.00;4992978;28;45504;-70
2023/11/13 09:24:41;;;;;;;;;0.00;0.00;;;;;-144.24;100.00;60536.00;4993507;28;45409;-69
2023/11/13 09:27:11;;;;;;;;;1.00;1.00;;;;;-144.24;100.00;60536.00;4995455;28;46246;-68
2023/11/13 09:29:43;;;;;;;;;0.33;0.33;;;;;-144.24;100.00;60536.00;4989383;28;45566;-70
2023/11/13 09:32:09;;;;;;;;;2.33;1.00;;;;;-144.24;100.00;60536.00;4993190;28;45509;-69
2023/11/13 09:34:35;;;;;;;;;1.00;1.00;;;;;-144.24;100.00;60536.00;4977415;28;45654;-70
2023/11/13 09:37:05;;;;;;;;;3.00;0.00;;;;;-144.24;100.00;60536.00;4991660;28;47329;-69
2023/11/13 09:39:32;;;;;;;;;2.67;1.00;;;;;-144.24;100.00;60536.00;4994576;28;45375;-69
2023/11/13 09:42:02;;;;;;;;;1.33;1.00;;;;;-144.24;100.00;60536.00;4990631;28;45458;-70
2023/11/13 09:44:28;;;;;;;;;2.33;1.00;;;;;-144.24;100.00;60536.00;4988372;28;45529;-70
2023/11/13 09:46:57;;;;;;;;;1.00;1.00;;;;;-144.24;100.00;60536.00;4989207;28;47325;-69
2023/11/13 09:49:26;;;;;;;;;0.00;0.00;;;;;-144.24;100.00;60536.00;4991163;28;45493;-71
2023/11/13 09:51:53;;;;;;;;;0.67;0.67;;;;;-144.24;100.00;60536.00;4976873;28;45530;-69
2023/11/13 09:54:20;;;;;;;;;2.33;0.67;;;;;-144.24;100.00;60536.00;4994097;28;45485;-71
2023/11/13 09:56:46;;;;;;;;;1.00;1.00;;;;;-144.24;100.00;60536.00;4993078;28;47536;-71
2023/11/13 09:59:12;;;;;;;;;1.00;1.00;;;;;-144.24;100.00;60536.00;4992475;28;59419;-70
2023/11/13 10:01:39;;;;;;;;;1.00;1.00;;;;;-144.24;100.00;60536.00;4990743;28;45456;-69
2023/11/13 10:04:05;;;;;;;;;0.00;0.00;;;;;-144.24;100.00;60536.00;4992860;28;45402;-69
2023/11/13 10:06:31;;;;;;;;;0.00;0.00;;;;;-144.24;100.00;60536.00;4994697;28;45663;-69
2023/11/13 10:08:56;;;;;;;;;1.00;1.00;;;;;-144.24;100.00;60536.00;4992874;28;45947;-69
2023/11/13 10:11:25;;;;;;;;;0.67;0.67;;;;;-144.24;100.00;60536.00;4993859;28;68180;-69
2023/11/13 10:13:50;;;;;;;;;2.00;1.00;;;;;-144.24;100.00;60536.00;4990182;28;45406;-70
2023/11/13 10:16:21;;;;;;;;;0.00;0.00;;;;;-144.24;100.00;60536.00;4987002;28;45644;-70
2023/11/13 10:18:47;;;;;;;;;1.00;1.00;;;;;-144.24;100.00;60536.00;4989527;28;45440;-69
2023/11/13 10:21:21;;;;;;;;;1.00;1.00;;;;;-144.24;100.00;60536.00;4991686;28;45521;-69
2023/11/13 10:23:47;;;;;;;;;0.67;0.67;;;;;-144.24;100.00;60536.00;4994771;28;45534;-69
2023/11/13 10:26:14;;;;;;;;;0.67;0.00;;;;;-144.24;100.00;60536.00;4995143;28;52865;-70
2023/11/13 10:28:40;;;;;;;;;0.00;0.00;;;;;-144.24;100.00;60536.00;4994667;28;45485;-70
2023/11/13 10:31:17;;;;;;;;;0.00;0.00;;;;;-144.24;100.00;60536.00;4992454;28;45497;-69
2023/11/13 10:33:55;;;;;;;;;2.00;0.00;;;;;-144.24;100.00;60536.00;4984157;28;45377;-71
2023/11/13 10:36:22;;;;;;;;;0.00;0.00;;;;;-144.24;100.00;60536.00;4991980;28;46098;-69
2023/11/13 10:38:48;;;;;;;;;3.00;0.00;;;;;-144.24;100.00;60536.00;4986357;28;45416;-71
2023/11/13 10:41:21;;;;;;;;;1.00;1.00;;;;;-144.24;100.00;60536.00;4994009;28;45516;-69
2023/11/13 10:43:46;;;;;;;;;6.00;2.67;;;;;-144.24;100.00;60536.00;4986432;28;45464;-69
2023/11/13 10:46:26;;;;;;;;;1.00;1.00;;;;;-144.24;100.00;60536.00;4990175;28;74606;-69
2023/11/13 10:48:53;;;;;;;;;0.67;0.33;;;;;-144.24;100.00;60536.00;4992092;28;45828;-69
2023/11/13 10:51:18;;;;;;;;;1.00;1.00;;;;;-144.24;100.00;60536.00;4991073;28;45438;-69
2023/11/13 10:53:44;;;;;;;;;2.00;2.00;;;;;-144.24;100.00;60536.00;4991943;28;45527;-68
2023/11/13 10:56:10;;;;;;;;;3.00;1.00;;;;;-144.24;100.00;60536.00;4986911;28;74306;-69
2023/11/13 10:58:36;;;;;;;;;3.67;1.00;;;;;-144.24;100.00;60536.00;4989266;28;45428;-71
2023/11/13 11:01:21;;;;;;;;;3.00;2.00;;;;;-144.24;100.00;60536.00;4994701;28;46085;-68
2023/11/13 11:03:50;;;;;;;;;1.00;1.00;;;;;-144.24;100.00;60536.00;4991877;28;45608;-69
2023/11/13 11:06:19;;;;;;;;;1.00;1.00;;;;;-144.24;100.00;60536.00;4988167;28;45710;-68